Time;durP1;ratioP1;P1;durP2;ratioP2;P2;SDS_P1;SDS_P2;PMS_P1;PMS_P2;Temp;Humidity;BMP_temperature;BMP_pressure;BME280_temperature;BME280_humidity;BME280_pressure;Samples;Min_cycle;Max_cycle;Signal;HPM_P1;HPM_P2
2023/12/24 00:01:37;;;;;;;5.07;1.40;;;20.90;99.90;;;;;;4969892;28;20178;-75
2023/12/24 00:04:04;;;;;;;5.83;2.10;;;20.90;99.90;;;;;;4992078;28;20191;-76
2023/12/24 00:06:32;;;;;;;6.23;1.50;;;20.90;99.90;;;;;;4992575;28;20244;-74
2023/12/24 00:08:59;;;;;;;8.57;2.50;;;21.00;99.90;;;;;;4991898;28;20606;-73
2023/12/24 00:11:26;;;;;;;6.33;2.30;;;21.10;99.90;;;;;;4991405;28;20239;-73
2023/12/24 00:13:53;;;;;;;4.90;1.43;;;21.20;99.90;;;;;;4991125;28;20189;-71
2023/12/24 00:16:21;;;;;;;5.23;1.97;;;21.20;99.90;;;;;;4991940;28;20317;-72
2023/12/24 00:18:48;;;;;;;3.40;1.57;;;21.10;99.90;;;;;;4993317;28;20178;-74
2023/12/24 00:21:15;;;;;;;11.00;2.63;;;21.00;99.90;;;;;;4992201;28;20197;-72
2023/12/24 00:23:44;;;;;;;6.87;2.43;;;21.00;99.90;;;;;;4992160;28;20179;-75
2023/12/24 00:26:11;;;;;;;6.83;2.30;;;21.00;99.90;;;;;;4992097;28;20761;-72
2023/12/24 00:28:38;;;;;;;5.27;2.10;;;21.10;99.90;;;;;;4994063;28;20244;-72
2023/12/24 00:31:06;;;;;;;4.63;1.73;;;21.00;99.90;;;;;;4977570;28;20285;-75
2023/12/24 00:33:33;;;;;;;5.50;1.63;;;20.90;99.90;;;;;;4995988;28;20206;-73
2023/12/24 00:36:00;;;;;;;4.50;1.67;;;20.80;99.90;;;;;;4995777;28;20218;-74
2023/12/24 00:38:28;;;;;;;4.80;2.00;;;20.70;99.90;;;;;;4995670;28;20183;-74
2023/12/24 00:40:55;;;;;;;4.83;1.90;;;20.70;99.90;;;;;;4996812;28;20204;-72
2023/12/24 00:43:23;;;;;;;6.77;3.27;;;20.70;99.90;;;;;;4996123;28;20182;-74
2023/12/24 00:45:51;;;;;;;6.00;2.20;;;20.70;99.90;;;;;;4995420;28;20228;-74
2023/12/24 00:48:18;;;;;;;10.77;2.90;;;20.80;99.90;;;;;;4995747;28;20585;-74
2023/12/24 00:50:45;;;;;;;7.07;2.53;;;20.80;99.90;;;;;;4995625;28;20292;-75
2023/12/24 00:53:12;;;;;;;7.43;2.20;;;20.80;99.90;;;;;;4977662;28;20615;-73
2023/12/24 00:55:41;;;;;;;8.30;2.67;;;20.80;99.90;;;;;;4995449;28;20182;-74
2023/12/24 00:58:09;;;;;;;9.70;3.00;;;20.80;99.90;;;;;;4995463;28;20240;-73
2023/12/24 01:00:36;;;;;;;4.17;1.63;;;20.70;99.90;;;;;;4995433;28;20209;-70
2023/12/24 01:03:03;;;;;;;4.07;1.70;;;20.70;99.90;;;;;;4995825;28;20240;-72
2023/12/24 01:05:31;;;;;;;8.87;1.73;;;20.50;99.90;;;;;;4995448;28;20210;-73
2023/12/24 01:07:58;;;;;;;3.17;1.60;;;20.50;99.90;;;;;;4995174;28;20178;-72
2023/12/24 01:10:25;;;;;;;3.53;2.53;;;20.60;99.90;;;;;;4995893;28;20192;-72
2023/12/24 01:12:52;;;;;;;5.20;1.63;;;20.70;99.90;;;;;;4995447;28;20181;-71
2023/12/24 01:15:20;;;;;;;5.50;1.70;;;20.80;99.90;;;;;;4995421;28;20179;-72
2023/12/24 01:17:47;;;;;;;3.43;1.47;;;20.70;99.90;;;;;;4996437;28;20659;-71
2023/12/24 01:20:18;;;;;;;1.53;1.23;;;20.90;99.90;;;;;;4979618;28;20200;-74
2023/12/24 01:22:46;;;;;;;2.10;1.20;;;21.00;99.90;;;;;;4996151;28;20190;-73
2023/12/24 01:25:14;;;;;;;2.43;1.30;;;21.20;99.90;;;;;;4997799;28;20253;-74
2023/12/24 01:27:41;;;;;;;2.80;1.47;;;21.50;99.90;;;;;;4995957;28;20181;-72
2023/12/24 01:30:09;;;;;;;6.90;1.70;;;21.80;99.90;;;;;;4995444;28;20182;-72
2023/12/24 01:32:37;;;;;;;4.10;1.00;;;22.00;99.90;;;;;;4995032;28;20190;-71
2023/12/24 01:35:04;;;;;;;4.10;1.40;;;22.20;99.90;;;;;;4994730;28;20187;-71
2023/12/24 01:37:31;;;;;;;3.33;1.30;;;22.40;99.90;;;;;;4995082;28;20182;-72
2023/12/24 01:39:59;;;;;;;3.80;1.43;;;22.60;99.90;;;;;;4994556;28;20190;-72
2023/12/24 01:42:26;;;;;;;4.00;1.60;;;22.80;99.90;;;;;;4995300;28;20178;-72
2023/12/24 01:44:53;;;;;;;3.30;1.40;;;22.80;99.90;;;;;;4995065;28;20262;-74
2023/12/24 01:47:21;;;;;;;4.20;1.17;;;22.80;99.90;;;;;;4995009;28;20190;-75
2023/12/24 01:49:49;;;;;;;3.83;1.80;;;22.90;99.90;;;;;;4995154;28;20209;-73
2023/12/24 01:52:18;;;;;;;5.03;1.77;;;22.80;99.90;;;;;;4994079;28;20674;-74
2023/12/24 01:54:50;;;;;;;4.57;1.80;;;22.60;99.90;;;;;;4977321;28;20197;-72
2023/12/24 01:57:18;;;;;;;5.37;2.37;;;22.50;99.90;;;;;;4994010;28;20225;-71
2023/12/24 01:59:45;;;;;;;6.33;2.00;;;22.40;99.90;;;;;;4994445;28;20261;-72
2023/12/24 02:02:13;;;;;;;6.20;2.40;;;22.20;99.90;;;;;;4994403;28;20543;-74
2023/12/24 02:04:41;;;;;;;6.77;2.20;;;22.30;99.90;;;;;;4994223;28;20194;-74
2023/12/24 02:07:10;;;;;;;8.17;2.03;;;22.20;99.90;;;;;;4994016;28;20185;-74
2023/12/24 02:09:37;;;;;;;8.80;2.60;;;22.10;99.90;;;;;;4995051;28;20549;-74
2023/12/24 02:12:05;;;;;;;6.27;2.20;;;22.30;99.90;;;;;;4977572;28;20647;-73
2023/12/24 02:14:32;;;;;;;5.37;1.97;;;22.30;99.90;;;;;;4994753;28;20186;-73
2023/12/24 02:17:01;;;;;;;6.63;2.57;;;22.70;99.90;;;;;;4995034;28;20710;-74
2023/12/24 02:19:29;;;;;;;4.17;1.33;;;23.00;99.90;;;;;;4995269;28;20178;-72
2023/12/24 02:21:56;;;;;;;3.47;1.30;;;23.10;99.90;;;;;;4993981;28;20659;-72
2023/12/24 02:24:24;;;;;;;4.30;1.20;;;23.20;99.90;;;;;;4994792;28;20183;-73
2023/12/24 02:27:08;;;;;;;4.27;1.10;;;23.20;99.90;;;;;;4994896;28;20216;-74
2023/12/24 02:29:42;;;;;;;2.43;0.93;;;23.40;99.90;;;;;;4978116;28;20174;-73
2023/12/24 02:32:17;;;;;;;3.83;1.00;;;23.50;99.90;;;;;;4995550;28;20194;-72
2023/12/24 02:34:48;;;;;;;5.73;1.70;;;23.20;99.90;;;;;;4995621;28;20191;-73
2023/12/24 02:37:16;;;;;;;4.83;1.37;;;23.00;99.90;;;;;;4995876;28;20179;-71
2023/12/24 02:39:43;;;;;;;5.43;1.20;;;23.10;99.90;;;;;;4996079;28;20577;-69
2023/12/24 02:42:11;;;;;;;3.50;1.03;;;23.40;99.90;;;;;;4978159;28;20186;-72
2023/12/24 02:44:39;;;;;;;4.30;1.10;;;23.30;99.90;;;;;;4995759;28;20592;-73
2023/12/24 02:47:06;;;;;;;5.60;1.50;;;23.50;99.90;;;;;;4995802;28;20216;-72
2023/12/24 02:49:34;;;;;;;5.43;1.93;;;23.80;99.90;;;;;;4978678;28;20662;-74
2023/12/24 02:52:01;;;;;;;4.57;1.03;;;24.20;99.90;;;;;;4995088;28;20650;-73
2023/12/24 02:54:28;;;;;;;5.37;1.20;;;24.90;99.90;;;;;;4995624;28;20171;-72
2023/12/24 02:56:56;;;;;;;5.70;1.50;;;24.80;99.90;;;;;;4995461;28;20233;-70
2023/12/24 02:59:26;;;;;;;3.57;1.40;;;24.70;99.90;;;;;;4995146;28;20648;-72
2023/12/24 03:01:53;;;;;;;3.70;1.23;;;25.00;99.90;;;;;;4995117;28;20195;-72
2023/12/24 03:04:20;;;;;;;4.17;1.40;;;25.40;99.90;;;;;;4995455;28;20207;-71
2023/12/24 03:06:48;;;;;;;4.13;1.80;;;25.90;99.90;;;;;;4995259;28;20604;-72
2023/12/24 03:09:15;;;;;;;3.70;1.23;;;25.70;99.90;;;;;;4994512;28;20171;-71
2023/12/24 03:11:42;;;;;;;3.90;1.13;;;25.60;99.90;;;;;;4994831;28;20186;-71
2023/12/24 03:14:10;;;;;;;4.77;1.50;;;25.20;99.90;;;;;;4994431;28;20512;-71
2023/12/24 03:16:37;;;;;;;2.53;1.30;;;25.10;99.90;;;;;;4994422;28;20264;-70
2023/12/24 03:19:04;;;;;;;4.70;1.33;;;24.90;99.90;;;;;;4994464;28;20179;-71
2023/12/24 03:21:32;;;;;;;5.30;1.30;;;24.90;99.90;;;;;;4976940;28;20552;-72
2023/12/24 03:23:59;;;;;;;4.23;1.50;;;25.00;99.90;;;;;;4994314;28;20187;-71
2023/12/24 03:26:26;;;;;;;8.77;2.10;;;25.30;99.90;;;;;;4994345;28;20210;-71
2023/12/24 03:28:54;;;;;;;5.90;1.70;;;25.60;99.90;;;;;;4994419;28;20265;-72
2023/12/24 03:31:25;;;;;;;3.27;1.30;;;25.70;99.90;;;;;;4994336;28;20177;-72
2023/12/24 03:33:53;;;;;;;6.33;1.70;;;25.70;99.90;;;;;;4994310;28;20175;-72
2023/12/24 03:36:21;;;;;;;6.93;2.23;;;25.70;99.90;;;;;;4994101;28;20186;-71
2023/12/24 03:38:48;;;;;;;5.20;1.60;;;25.10;99.90;;;;;;4994030;28;20179;-71
2023/12/24 03:41:16;;;;;;;3.83;1.30;;;24.40;99.90;;;;;;4993940;28;20256;-71
2023/12/24 03:43:43;;;;;;;5.90;1.30;;;24.20;99.90;;;;;;4993685;28;20183;-72
2023/12/24 03:46:11;;;;;;;3.87;1.00;;;24.40;99.90;;;;;;4993981;28;20604;-73
2023/12/24 03:48:38;;;;;;;4.17;1.30;;;24.70;99.90;;;;;;4993800;28;20598;-73
2023/12/24 03:51:05;;;;;;;5.17;1.17;;;24.70;99.90;;;;;;4993833;28;20189;-72
2023/12/24 03:53:32;;;;;;;7.53;1.40;;;25.10;99.90;;;;;;4993972;28;20175;-72
2023/12/24 03:56:00;;;;;;;6.37;1.70;;;25.60;99.90;;;;;;4994098;28;20540;-72
2023/12/24 03:58:27;;;;;;;7.97;1.57;;;25.20;99.90;;;;;;4993924;28;20244;-69
2023/12/24 04:00:54;;;;;;;5.97;1.60;;;24.40;99.90;;;;;;4993844;28;20182;-71
2023/12/24 04:03:22;;;;;;;5.67;1.00;;;24.30;99.90;;;;;;4993042;28;20294;-72
2023/12/24 04:05:49;;;;;;;10.63;2.13;;;23.90;99.90;;;;;;4993911;28;20211;-72
2023/12/24 04:08:17;;;;;;;4.43;1.47;;;23.60;99.90;;;;;;4993892;28;20175;-72
2023/12/24 04:10:45;;;;;;;8.30;1.87;;;23.40;99.90;;;;;;4993686;28;20190;-72
2023/12/24 04:13:12;;;;;;;10.20;1.60;;;23.30;99.90;;;;;;4993736;28;20179;-72
2023/12/24 04:15:40;;;;;;;7.00;1.80;;;23.50;99.90;;;;;;4993847;28;20274;-73
2023/12/24 04:18:07;;;;;;;11.60;2.10;;;23.40;99.90;;;;;;4993727;28;20190;-75
2023/12/24 04:20:34;;;;;;;10.80;2.30;;;23.60;99.90;;;;;;4993772;28;20742;-71
2023/12/24 04:23:02;;;;;;;12.90;2.30;;;23.70;99.90;;;;;;4993631;28;20269;-72
2023/12/24 04:25:29;;;;;;;7.00;1.80;;;23.70;99.90;;;;;;4993646;28;20589;-70
2023/12/24 04:27:56;;;;;;;8.00;2.40;;;23.70;99.90;;;;;;4992429;28;20189;-72
2023/12/24 04:30:24;;;;;;;8.63;2.50;;;23.70;99.90;;;;;;4991614;28;20190;-71
2023/12/24 04:32:51;;;;;;;10.60;2.30;;;23.70;99.90;;;;;;4993550;28;20183;-72
2023/12/24 04:35:18;;;;;;;10.73;2.37;;;23.70;99.90;;;;;;4993198;28;20186;-70
2023/12/24 04:37:45;;;;;;;11.20;2.90;;;23.90;99.90;;;;;;4993212;28;20389;-72
2023/12/24 04:40:13;;;;;;;13.33;3.17;;;24.10;99.90;;;;;;4993677;28;20197;-70
2023/12/24 04:42:40;;;;;;;10.17;2.73;;;24.20;99.90;;;;;;4993552;28;20716;-72
2023/12/24 04:45:08;;;;;;;11.83;2.50;;;24.30;99.90;;;;;;4995621;28;20207;-69
2023/12/24 04:47:35;;;;;;;14.27;3.20;;;24.40;99.90;;;;;;4995271;28;20183;-73
2023/12/24 04:50:03;;;;;;;9.17;2.37;;;24.40;99.90;;;;;;4993501;28;20189;-73
2023/12/24 04:52:35;;;;;;;8.83;2.37;;;24.30;99.90;;;;;;4993522;28;20593;-73
2023/12/24 04:55:09;;;;;;;12.17;2.57;;;24.10;99.90;;;;;;4982651;28;20190;-73
2023/12/24 04:57:36;;;;;;;10.43;2.00;;;24.00;99.90;;;;;;4992637;28;20234;-72
2023/12/24 05:00:05;;;;;;;13.83;2.53;;;23.90;99.90;;;;;;4967620;28;20187;-72
2023/12/24 05:02:33;;;;;;;12.07;2.50;;;23.90;99.90;;;;;;4975969;28;20305;-74
2023/12/24 05:05:03;;;;;;;8.17;2.13;;;24.00;99.90;;;;;;4985874;28;20214;-73
2023/12/24 05:07:31;;;;;;;8.73;2.40;;;24.20;99.90;;;;;;4991907;28;20197;-72
2023/12/24 05:09:58;;;;;;;12.37;2.43;;;24.20;99.90;;;;;;4991743;28;20187;-71
2023/12/24 05:12:26;;;;;;;7.87;2.23;;;24.30;99.90;;;;;;4991621;28;20256;-72
2023/12/24 05:14:53;;;;;;;11.57;2.23;;;24.30;99.90;;;;;;4993442;28;20178;-72
2023/12/24 05:17:20;;;;;;;12.47;2.23;;;24.30;99.90;;;;;;4995682;28;20651;-73
2023/12/24 05:19:47;;;;;;;12.17;2.57;;;24.30;99.90;;;;;;4995114;28;20221;-72
2023/12/24 05:22:15;;;;;;;15.23;3.03;;;24.10;99.90;;;;;;4995040;28;20179;-70
2023/12/24 05:24:42;;;;;;;17.03;2.70;;;23.80;99.90;;;;;;4995343;28;20229;-73
2023/12/24 05:27:09;;;;;;;8.40;2.50;;;23.60;99.90;;;;;;4994637;28;20191;-72
2023/12/24 05:29:37;;;;;;;12.40;2.10;;;23.50;99.90;;;;;;4994677;28;20186;-72
2023/12/24 05:32:04;;;;;;;9.27;2.77;;;23.30;99.90;;;;;;4994666;28;20178;-72
2023/12/24 05:34:32;;;;;;;12.53;4.07;;;23.10;99.90;;;;;;4994554;28;20198;-72
2023/12/24 05:37:00;;;;;;;8.43;2.23;;;23.10;99.90;;;;;;4994738;28;20219;-70
2023/12/24 05:39:28;;;;;;;6.07;1.87;;;23.00;99.90;;;;;;4958352;28;20278;-72
2023/12/24 05:41:55;;;;;;;14.37;1.97;;;22.90;99.90;;;;;;4975223;28;20183;-72
2023/12/24 05:44:22;;;;;;;8.27;2.03;;;22.90;99.90;;;;;;4992539;28;20186;-73
2023/12/24 05:46:53;;;;;;;10.50;2.50;;;22.80;99.90;;;;;;4995022;28;20229;-73
2023/12/24 05:49:20;;;;;;;8.47;2.47;;;22.70;99.90;;;;;;4993975;28;20232;-72
2023/12/24 05:51:48;;;;;;;9.47;2.43;;;22.60;99.90;;;;;;4994759;28;20187;-72
2023/12/24 05:54:16;;;;;;;9.83;2.60;;;22.50;99.90;;;;;;4994784;28;20186;-72
2023/12/24 05:56:43;;;;;;;9.53;2.53;;;22.40;99.90;;;;;;4977696;28;20589;-71
2023/12/24 05:59:13;;;;;;;8.20;2.50;;;22.30;99.90;;;;;;4995570;28;20233;-72
2023/12/24 06:01:42;;;;;;;10.20;3.27;;;22.30;99.90;;;;;;4994616;28;20264;-71
2023/12/24 06:04:10;;;;;;;12.23;2.90;;;22.20;99.90;;;;;;4994189;28;20175;-72
2023/12/24 06:06:41;;;;;;;8.70;2.63;;;22.20;99.90;;;;;;4994177;28;20218;-70
2023/12/24 06:09:09;;;;;;;10.07;2.30;;;22.20;99.90;;;;;;4994585;28;20190;-72
2023/12/24 06:11:36;;;;;;;13.40;3.00;;;22.20;99.90;;;;;;4993754;28;20182;-70
2023/12/24 06:14:04;;;;;;;10.80;2.53;;;22.20;99.90;;;;;;4994445;28;20210;-72
2023/12/24 06:16:31;;;;;;;12.23;2.87;;;22.20;99.90;;;;;;4994601;28;20250;-73
2023/12/24 06:18:59;;;;;;;11.93;2.43;;;22.40;99.90;;;;;;4994308;28;20181;-71
2023/12/24 06:21:26;;;;;;;13.57;2.60;;;22.40;99.90;;;;;;4994741;28;20302;-71
2023/12/24 06:23:54;;;;;;;8.23;2.53;;;22.50;99.90;;;;;;4994569;28;20218;-73
2023/12/24 06:26:21;;;;;;;6.87;2.40;;;22.60;99.90;;;;;;4992820;28;20229;-72
2023/12/24 06:28:48;;;;;;;8.07;3.17;;;22.70;99.90;;;;;;4994430;28;20232;-69
2023/12/24 06:31:25;;;;;;;10.07;2.43;;;22.80;99.90;;;;;;4994424;28;20441;-71
2023/12/24 06:33:52;;;;;;;7.50;2.00;;;22.50;99.90;;;;;;4993865;28;20209;-71
2023/12/24 06:36:19;;;;;;;6.33;1.70;;;22.50;99.90;;;;;;4993953;28;20197;-71
2023/12/24 06:38:47;;;;;;;9.03;1.80;;;22.40;99.90;;;;;;4993919;28;20179;-71
2023/12/24 06:41:14;;;;;;;6.97;1.53;;;22.10;99.90;;;;;;4992898;28;20261;-72
2023/12/24 06:43:42;;;;;;;5.33;1.67;;;22.00;99.90;;;;;;4983750;28;20190;-71
2023/12/24 06:46:12;;;;;;;7.57;2.00;;;22.00;99.90;;;;;;4993704;28;20228;-73
2023/12/24 06:48:40;;;;;;;4.53;1.47;;;21.80;99.90;;;;;;4993492;28;20255;-71
2023/12/24 06:51:07;;;;;;;6.10;1.60;;;21.60;99.90;;;;;;4993704;28;20679;-70
2023/12/24 06:53:35;;;;;;;5.33;1.60;;;21.70;99.90;;;;;;4993475;28;20199;-70
2023/12/24 06:56:03;;;;;;;7.03;1.50;;;21.70;99.90;;;;;;4993417;28;20206;-71
2023/12/24 06:58:31;;;;;;;5.47;1.60;;;21.60;99.90;;;;;;4976106;28;20233;-71
2023/12/24 07:00:58;;;;;;;4.13;1.50;;;21.60;99.90;;;;;;4993399;28;20216;-72
2023/12/24 07:03:25;;;;;;;4.57;1.63;;;21.70;99.90;;;;;;4993077;28;20194;-71
2023/12/24 07:05:53;;;;;;;4.70;1.50;;;21.70;99.90;;;;;;4993908;28;20666;-72
2023/12/24 07:08:22;;;;;;;4.73;1.43;;;21.80;99.90;;;;;;4993724;28;20183;-71
2023/12/24 07:10:50;;;;;;;1.37;0.90;;;21.80;99.90;;;;;;4993385;28;20210;-72
2023/12/24 07:13:17;;;;;;;3.17;1.20;;;21.90;99.90;;;;;;4993440;28;20650;-72
2023/12/24 07:15:45;;;;;;;4.97;1.60;;;21.90;99.90;;;;;;4993524;28;20171;-70
2023/12/24 07:18:13;;;;;;;3.73;1.67;;;21.90;99.90;;;;;;4992861;28;20182;-70
2023/12/24 07:20:40;;;;;;;5.07;1.63;;;21.90;99.90;;;;;;4993979;28;20583;-73
2023/12/24 07:23:07;;;;;;;4.40;1.60;;;22.00;99.90;;;;;;4993498;28;20189;-67
2023/12/24 07:25:35;;;;;;;4.93;1.70;;;21.90;99.90;;;;;;4993974;28;20212;-71
2023/12/24 07:28:02;;;;;;;5.73;1.87;;;21.80;99.90;;;;;;4993833;28;20181;-71
2023/12/24 07:30:29;;;;;;;6.10;1.67;;;21.80;99.90;;;;;;4993105;28;20272;-70
2023/12/24 07:32:57;;;;;;;3.57;1.80;;;21.70;99.90;;;;;;4993029;28;20548;-70
2023/12/24 07:35:24;;;;;;;6.50;1.70;;;21.80;99.90;;;;;;4993633;28;20265;-70
2023/12/24 07:37:52;;;;;;;5.87;1.93;;;21.80;99.90;;;;;;4993231;28;20265;-69
2023/12/24 07:40:19;;;;;;;2.30;1.40;;;21.70;99.90;;;;;;4993179;28;20247;-72
2023/12/24 07:42:46;;;;;;;2.23;1.37;;;21.60;99.90;;;;;;4993180;28;20270;-71
2023/12/24 07:45:14;;;;;;;3.17;1.00;;;21.40;99.90;;;;;;4993066;28;20663;-72
2023/12/24 07:47:41;;;;;;;3.57;1.10;;;21.20;99.90;;;;;;4974915;28;20187;-72
2023/12/24 07:50:09;;;;;;;1.33;1.20;;;21.10;99.90;;;;;;4992979;28;20558;-73
2023/12/24 07:52:36;;;;;;;2.37;1.20;;;21.10;99.90;;;;;;4992961;28;20206;-72
2023/12/24 07:55:04;;;;;;;2.13;1.00;;;21.00;99.90;;;;;;4992567;28;20192;-72
2023/12/24 07:57:31;;;;;;;2.47;1.13;;;21.00;99.90;;;;;;4992540;28;20245;-73
2023/12/24 07:59:58;;;;;;;1.93;1.17;;;20.90;99.90;;;;;;4992427;28;20186;-72
2023/12/24 08:02:25;;;;;;;1.63;0.90;;;20.90;99.90;;;;;;4992030;28;20184;-72
2023/12/24 08:04:55;;;;;;;2.43;1.37;;;20.90;99.90;;;;;;4992653;28;20174;-73
2023/12/24 08:07:23;;;;;;;3.43;1.20;;;21.00;99.90;;;;;;4992365;28;20320;-72
2023/12/24 08:09:51;;;;;;;2.47;1.10;;;21.00;99.90;;;;;;4992237;28;20182;-72
2023/12/24 08:12:18;;;;;;;4.07;1.40;;;21.10;99.90;;;;;;4992364;28;20270;-72
2023/12/24 08:14:45;;;;;;;2.60;1.30;;;21.00;99.90;;;;;;4992689;28;20182;-74
2023/12/24 08:17:13;;;;;;;4.97;1.20;;;21.00;99.90;;;;;;4992319;28;20261;-72
2023/12/24 08:19:40;;;;;;;3.33;1.40;;;21.00;99.90;;;;;;4975088;28;20271;-72
2023/12/24 08:22:07;;;;;;;2.80;1.27;;;21.00;99.90;;;;;;4992426;28;20264;-73
2023/12/24 08:24:35;;;;;;;4.13;1.70;;;21.00;99.90;;;;;;4991201;28;20186;-70
2023/12/24 08:27:02;;;;;;;4.27;1.60;;;21.00;99.90;;;;;;4992199;28;20692;-73
2023/12/24 08:29:31;;;;;;;7.33;2.10;;;21.10;99.90;;;;;;4992696;28;20277;-72
2023/12/24 08:31:58;;;;;;;6.20;2.33;;;21.00;99.90;;;;;;4992087;28;20178;-71
2023/12/24 08:34:26;;;;;;;5.73;2.60;;;21.00;99.90;;;;;;4992224;28;20226;-70
2023/12/24 08:36:53;;;;;;;5.13;1.53;;;20.90;99.90;;;;;;4992221;28;20186;-73
2023/12/24 08:39:20;;;;;;;3.00;1.73;;;20.90;99.90;;;;;;4992112;28;20187;-73
2023/12/24 08:41:47;;;;;;;8.90;2.83;;;20.80;99.90;;;;;;4992488;28;20627;-73
2023/12/24 08:44:16;;;;;;;5.07;1.90;;;20.80;99.90;;;;;;4992199;28;20199;-72
2023/12/24 08:46:47;;;;;;;7.50;2.10;;;20.80;99.90;;;;;;4991689;28;20218;-72
2023/12/24 08:49:15;;;;;;;11.70;2.70;;;20.70;99.90;;;;;;4993124;28;20190;-74
2023/12/24 08:51:43;;;;;;;12.53;2.37;;;20.60;99.90;;;;;;4995567;28;20183;-71
2023/12/24 08:54:10;;;;;;;7.87;2.10;;;20.50;99.90;;;;;;4995270;28;20640;-73
2023/12/24 08:56:38;;;;;;;10.80;2.30;;;20.50;99.90;;;;;;4978218;28;20261;-72
2023/12/24 08:59:08;;;;;;;7.87;2.27;;;20.50;99.90;;;;;;4996252;28;20184;-73
2023/12/24 09:01:39;;;;;;;10.03;2.40;;;20.30;99.90;;;;;;4995440;28;20183;-72
2023/12/24 09:04:07;;;;;;;6.57;2.10;;;20.30;99.90;;;;;;4995754;28;20720;-72
2023/12/24 09:06:34;;;;;;;12.40;2.57;;;20.20;99.90;;;;;;4995716;28;20222;-71
2023/12/24 09:09:02;;;;;;;7.60;2.20;;;20.20;99.90;;;;;;4977648;28;20289;-69
2023/12/24 09:11:29;;;;;;;7.93;2.77;;;20.10;99.90;;;;;;4978276;28;20569;-72
2023/12/24 09:13:56;;;;;;;8.90;2.60;;;20.10;99.90;;;;;;4995694;28;20214;-71
2023/12/24 09:16:24;;;;;;;7.53;2.23;;;20.20;99.90;;;;;;4995234;28;20186;-73
2023/12/24 09:18:51;;;;;;;6.27;2.60;;;20.20;99.90;;;;;;4996107;28;20173;-73
2023/12/24 09:21:18;;;;;;;6.43;2.17;;;20.20;99.90;;;;;;4995882;28;20185;-72
2023/12/24 09:23:46;;;;;;;7.50;2.03;;;20.20;99.90;;;;;;4994673;28;20583;-73
2023/12/24 09:26:13;;;;;;;9.50;2.80;;;20.20;99.90;;;;;;4995528;28;20219;-72
2023/12/24 09:28:40;;;;;;;13.33;2.60;;;20.20;99.90;;;;;;4977964;28;20531;-72
2023/12/24 09:31:08;;;;;;;8.90;2.50;;;20.20;99.90;;;;;;4995599;28;20179;-72
2023/12/24 09:33:35;;;;;;;11.10;2.40;;;20.30;99.90;;;;;;4995519;28;20835;-72
2023/12/24 09:36:07;;;;;;;8.13;1.70;;;20.40;99.90;;;;;;4995582;28;20656;-71
2023/12/24 09:38:38;;;;;;;15.00;3.10;;;20.40;99.90;;;;;;4976254;28;20322;-72
2023/12/24 09:41:09;;;;;;;15.90;3.03;;;20.50;99.90;;;;;;4976871;28;20247;-72
2023/12/24 09:43:39;;;;;;;9.47;3.30;;;20.50;99.90;;;;;;4977486;28;20645;-72
2023/12/24 09:46:06;;;;;;;9.17;2.20;;;20.40;99.90;;;;;;4995519;28;20222;-72
2023/12/24 09:48:34;;;;;;;11.00;2.83;;;20.40;99.90;;;;;;4995388;28;20639;-73
2023/12/24 09:51:02;;;;;;;12.73;2.97;;;20.40;99.90;;;;;;4995242;28;20186;-73
2023/12/24 09:53:30;;;;;;;10.53;2.50;;;20.40;99.90;;;;;;4994553;28;20191;-72
2023/12/24 09:56:00;;;;;;;15.63;2.70;;;20.40;99.90;;;;;;4977469;28;20198;-73
2023/12/24 09:58:28;;;;;;;11.60;2.83;;;20.40;99.90;;;;;;4978386;28;20230;-73
2023/12/24 10:00:58;;;;;;;11.27;2.70;;;20.40;99.90;;;;;;4994626;28;20241;-73
2023/12/24 10:03:26;;;;;;;11.33;2.60;;;20.40;99.90;;;;;;4978275;28;20276;-72
2023/12/24 10:06:02;;;;;;;14.53;3.00;;;20.40;99.90;;;;;;4995251;28;20269;-74
2023/12/24 10:08:30;;;;;;;10.87;2.40;;;20.40;99.90;;;;;;4996517;28;20206;-74
2023/12/24 10:11:15;;;;;;;10.97;2.97;;;20.40;99.90;;;;;;4995018;28;20184;-73
2023/12/24 10:13:44;;;;;;;12.03;2.93;;;20.40;99.90;;;;;;4995689;28;20237;-73
2023/12/24 10:16:11;;;;;;;7.77;2.20;;;20.50;99.90;;;;;;4997118;28;20190;-73
2023/12/24 10:18:47;;;;;;;12.93;2.57;;;20.40;99.90;;;;;;4997859;28;20186;-73
2023/12/24 10:21:14;;;;;;;14.10;3.30;;;20.50;99.90;;;;;;4997256;28;20170;-73
2023/12/24 10:23:46;;;;;;;13.17;3.13;;;20.50;99.90;;;;;;4997346;28;20183;-73
2023/12/24 10:26:14;;;;;;;18.63;3.20;;;20.50;99.90;;;;;;4997725;28;20214;-73
2023/12/24 10:28:53;;;;;;;14.57;3.23;;;20.50;99.90;;;;;;4979753;28;20192;-72
2023/12/24 10:31:20;;;;;;;14.97;3.10;;;20.50;99.90;;;;;;4997577;28;20183;-74
2023/12/24 10:34:01;;;;;;;10.70;3.40;;;20.50;99.90;;;;;;4996611;28;20181;-75
2023/12/24 10:36:31;;;;;;;8.43;2.27;;;20.50;99.90;;;;;;4997049;28;20265;-71
2023/12/24 10:38:59;;;;;;;9.03;2.80;;;20.40;99.90;;;;;;4996945;28;20178;-71
2023/12/24 10:41:26;;;;;;;8.73;2.40;;;20.40;99.90;;;;;;4996075;28;20643;-71
2023/12/24 10:43:53;;;;;;;11.27;2.50;;;20.30;99.90;;;;;;4998540;28;20180;-71
2023/12/24 10:46:24;;;;;;;10.87;2.57;;;20.20;99.90;;;;;;5000033;28;20213;-72
2023/12/24 10:48:51;;;;;;;8.27;2.77;;;20.20;99.90;;;;;;4999334;28;20189;-73
2023/12/24 10:51:20;;;;;;;4.93;2.50;;;20.10;99.90;;;;;;4998747;28;20266;-73
2023/12/24 10:53:48;;;;;;;7.47;2.50;;;20.10;99.90;;;;;;4980486;28;20286;-73
2023/12/24 10:56:27;;;;;;;6.07;2.17;;;20.00;99.90;;;;;;4996430;28;20273;-72
2023/12/24 10:59:20;;;;;;;8.13;2.80;;;20.00;99.90;;;;;;4997164;28;20711;-74
2023/12/24 11:01:50;;;;;;;7.67;2.83;;;20.00;99.90;;;;;;4978902;28;20182;-74
2023/12/24 11:04:48;;;;;;;9.60;3.60;;;20.00;99.90;;;;;;4996275;28;20178;-72
2023/12/24 11:07:34;;;;;;;7.63;4.30;;;20.10;99.90;;;;;;4987981;28;20222;-73
2023/12/24 11:10:03;;;;;;;10.90;3.23;;;20.10;99.90;;;;;;4978133;28;20681;-73
2023/12/24 11:12:39;;;;;;;5.93;1.97;;;20.10;99.90;;;;;;4995139;28;20599;-73
2023/12/24 11:15:09;;;;;;;7.03;1.90;;;20.00;99.90;;;;;;4978972;28;20193;-73
2023/12/24 11:17:37;;;;;;;3.97;1.90;;;20.10;99.90;;;;;;4978471;28;20227;-73
2023/12/24 11:20:26;;;;;;;4.67;1.83;;;20.10;99.90;;;;;;4996237;28;20202;-72
2023/12/24 11:23:05;;;;;;;7.50;2.00;;;20.10;99.90;;;;;;4995409;28;20187;-71
2023/12/24 11:25:39;;;;;;;5.43;2.10;;;20.20;99.90;;;;;;4993135;28;20202;-73
2023/12/24 11:28:12;;;;;;;4.50;1.93;;;20.20;99.90;;;;;;4995182;28;20241;-70
2023/12/24 11:30:51;;;;;;;6.47;2.20;;;20.30;99.90;;;;;;4995192;28;20186;-73
2023/12/24 11:33:30;;;;;;;6.17;2.27;;;20.30;99.90;;;;;;4994850;28;20229;-70
2023/12/24 11:36:02;;;;;;;6.20;1.87;;;20.30;99.90;;;;;;4993356;28;20178;-73
2023/12/24 11:38:36;;;;;;;5.83;1.80;;;20.40;99.90;;;;;;4993525;28;20552;-72
2023/12/24 11:41:10;;;;;;;8.00;2.27;;;20.40;99.90;;;;;;4995526;28;20170;-71
2023/12/24 11:43:40;;;;;;;5.70;1.60;;;20.40;99.90;;;;;;4994811;28;20572;-72
2023/12/24 11:46:08;;;;;;;6.93;2.10;;;20.40;99.90;;;;;;4994995;28;20770;-73
2023/12/24 11:48:36;;;;;;;5.30;2.17;;;20.40;99.90;;;;;;4993790;28;20651;-71
2023/12/24 11:51:08;;;;;;;8.23;1.90;;;20.40;99.90;;;;;;4994787;28;20549;-71
2023/12/24 11:53:38;;;;;;;7.27;2.53;;;20.40;99.90;;;;;;4994683;28;20249;-70
2023/12/24 11:56:12;;;;;;;5.87;2.67;;;20.40;99.90;;;;;;4994299;28;20182;-71
2023/12/24 11:58:57;;;;;;;8.17;2.70;;;20.40;99.90;;;;;;4994484;28;20658;-71
2023/12/24 12:01:27;;;;;;;9.27;2.80;;;20.40;99.90;;;;;;4993964;28;20261;-71
2023/12/24 12:04:04;;;;;;;8.97;3.10;;;20.40;99.90;;;;;;4994222;28;20187;-73
2023/12/24 12:06:36;;;;;;;9.83;3.77;;;20.40;99.90;;;;;;4993873;28;20218;-72
2023/12/24 12:09:09;;;;;;;10.70;3.40;;;20.40;99.90;;;;;;4994082;28;20240;-73
2023/12/24 12:11:37;;;;;;;15.10;3.53;;;20.40;99.90;;;;;;4993942;28;20186;-74
2023/12/24 12:14:04;;;;;;;9.47;2.13;;;20.40;99.90;;;;;;4993898;28;20180;-75
2023/12/24 12:16:31;;;;;;;7.63;2.30;;;20.30;99.90;;;;;;4994120;28;20187;-73
2023/12/24 12:18:59;;;;;;;4.23;1.70;;;20.20;99.90;;;;;;4993913;28;20175;-74
2023/12/24 12:21:26;;;;;;;7.13;1.77;;;20.20;99.90;;;;;;4993797;28;20296;-73
2023/12/24 12:23:54;;;;;;;3.90;1.60;;;20.10;99.90;;;;;;4994780;28;20183;-74
2023/12/24 12:26:21;;;;;;;4.70;1.70;;;20.10;99.90;;;;;;4997516;28;20253;-73
2023/12/24 12:28:48;;;;;;;5.33;1.50;;;20.10;99.90;;;;;;4997792;28;20177;-72
2023/12/24 12:31:15;;;;;;;9.20;1.90;;;20.10;99.90;;;;;;4998047;28;20184;-74
2023/12/24 12:33:43;;;;;;;6.60;1.37;;;20.10;99.90;;;;;;4997688;28;20212;-73
2023/12/24 12:36:10;;;;;;;5.37;1.70;;;20.00;99.90;;;;;;4997054;28;20661;-74
2023/12/24 12:38:37;;;;;;;6.67;2.03;;;20.00;99.90;;;;;;4997110;28;20182;-74
2023/12/24 12:41:06;;;;;;;9.20;3.13;;;20.00;99.90;;;;;;4996743;28;20974;-74
2023/12/24 12:43:34;;;;;;;11.40;4.10;;;20.00;99.90;;;;;;4996787;28;20208;-73
2023/12/24 12:46:02;;;;;;;10.67;3.40;;;20.00;99.90;;;;;;4996839;28;20221;-74
2023/12/24 12:48:29;;;;;;;11.17;2.53;;;20.00;99.90;;;;;;4996600;28;20233;-74
2023/12/24 12:50:57;;;;;;;6.37;2.80;;;20.00;99.90;;;;;;4996991;28;20194;-74
2023/12/24 12:53:28;;;;;;;9.97;2.50;;;20.00;99.90;;;;;;4996528;28;20190;-74